createdAt,value
2018-09-06T00:01:05.905Z,25.87
2018-09-06T00:03:42.036Z,27.90
2018-09-06T00:06:13.307Z,24.90
2018-09-06T00:08:47.390Z,25.93
2018-09-06T00:11:19.570Z,21.63
2018-09-06T00:13:53.507Z,20.67
2018-09-06T00:16:24.377Z,21.77
2018-09-06T00:18:55.268Z,19.93
2018-09-06T00:21:36.744Z,18.40
2018-09-06T00:24:12.121Z,17.30
2018-09-06T00:26:45.372Z,18.40
2018-09-06T00:29:20.141Z,16.33
2018-09-06T00:31:56.319Z,16.23
2018-09-06T00:34:27.773Z,18.07
2018-09-06T00:37:03.640Z,18.77
2018-09-06T00:39:41.569Z,18.30
2018-09-06T00:44:50.612Z,19.23
2018-09-06T00:47:21.680Z,19.93
2018-09-06T00:49:58.222Z,19.03
2018-09-06T00:52:28.447Z,19.80
2018-09-06T00:55:04.700Z,19.73
2018-09-06T00:57:36.608Z,20.60
2018-09-06T01:00:09.223Z,18.83
2018-09-06T01:05:17.984Z,19.93
2018-09-06T01:07:55.930Z,18.03
2018-09-06T01:10:30.434Z,17.03
2018-09-06T01:13:04.869Z,19.47
2018-09-06T01:15:36.646Z,20.03
2018-09-06T01:18:16.457Z,21.20
2018-09-06T01:20:45.547Z,20.40
2018-09-06T01:23:15.307Z,20.10
2018-09-06T01:25:47.902Z,20.60
2018-09-06T01:28:22.050Z,20.57
2018-09-06T01:30:59.104Z,21.87
2018-09-06T01:33:31.519Z,21.67
2018-09-06T01:37:12.584Z,21.33
2018-09-06T01:39:41.035Z,20.40
2018-09-06T01:42:10.792Z,19.70
2018-09-06T01:44:44.499Z,19.70
2018-09-06T01:47:14.708Z,17.97
2018-09-06T01:50:55.316Z,17.30
2018-09-06T01:53:37.738Z,18.30
2018-09-06T01:56:10.658Z,17.73
2018-09-06T01:58:40.048Z,19.00
2018-09-06T02:01:12.646Z,17.97
2018-09-06T02:03:49.261Z,17.20
2018-09-06T02:09:01.252Z,20.20
2018-09-06T02:11:31.305Z,19.03
2018-09-06T02:14:05.471Z,19.37
2018-09-06T02:16:38.097Z,17.67
2018-09-06T02:19:16.355Z,18.13
2018-09-06T02:21:49.944Z,17.47
2018-09-06T02:24:22.160Z,16.83
2018-09-06T02:26:53.502Z,16.37
2018-09-06T02:29:27.977Z,16.40
2018-09-06T02:32:07.195Z,17.17
2018-09-06T02:34:36.380Z,17.90
2018-09-06T02:37:13.611Z,17.30
2018-09-06T02:39:51.205Z,17.97
2018-09-06T02:42:27.522Z,16.93
2018-09-06T02:44:58.049Z,17.77
2018-09-06T02:47:32.784Z,16.00
2018-09-06T02:51:05.471Z,15.50
2018-09-06T02:53:38.695Z,16.13
2018-09-06T02:56:12.683Z,18.70
2018-09-06T02:58:46.835Z,17.97
2018-09-06T03:01:24.554Z,19.13
2018-09-06T03:06:39.032Z,19.10
2018-09-06T03:09:10.726Z,18.60
2018-09-06T03:11:53.735Z,20.43
2018-09-06T03:14:32.150Z,20.57
2018-09-06T03:17:04.165Z,19.00
2018-09-06T03:19:36.362Z,20.40
2018-09-06T03:22:15.023Z,19.67
2018-09-06T03:27:25.869Z,19.03
2018-09-06T03:30:02.625Z,18.30
2018-09-06T03:32:34.612Z,17.30
2018-09-06T03:36:30.940Z,17.70
2018-09-06T03:39:01.837Z,16.10
2018-09-06T03:41:31.321Z,16.57
2018-09-06T03:44:01.689Z,15.00
2018-09-06T03:46:34.196Z,17.73
2018-09-06T03:49:06.184Z,17.40
2018-09-06T03:51:37.257Z,18.47
2018-09-06T03:54:09.596Z,18.47
2018-09-06T03:56:39.141Z,18.97
2018-09-06T03:59:09.467Z,18.50
2018-09-06T04:01:38.732Z,17.20
2018-09-06T04:04:11.529Z,17.40
2018-09-06T04:06:43.823Z,16.93
2018-09-06T04:09:15.631Z,17.40
2018-09-06T04:11:46.114Z,17.00
2018-09-06T04:14:19.582Z,16.50
2018-09-06T04:16:55.869Z,15.50
2018-09-06T04:19:35.004Z,16.33
2018-09-06T04:22:10.894Z,17.17
2018-09-06T04:24:39.691Z,15.93
2018-09-06T04:27:11.582Z,17.20
2018-09-06T04:29:41.408Z,16.67
2018-09-06T04:32:19.168Z,17.57
2018-09-06T04:34:54.294Z,15.37
2018-09-06T04:37:25.720Z,15.87
2018-09-06T04:39:57.517Z,15.50
2018-09-06T04:42:30.218Z,17.07
2018-09-06T04:45:02.784Z,16.03
2018-09-06T04:47:36.893Z,16.13
2018-09-06T04:50:09.224Z,16.27
2018-09-06T04:52:43.699Z,16.43
2018-09-06T04:55:19.963Z,14.90
2018-09-06T04:57:50.226Z,13.90
2018-09-06T05:00:20.889Z,13.80
2018-09-06T05:02:57.606Z,13.93
2018-09-06T05:05:33.861Z,14.33
2018-09-06T05:08:04.446Z,15.10
2018-09-06T05:10:40.887Z,14.10
2018-09-06T05:13:14.933Z,14.23
2018-09-06T05:15:47.588Z,15.67
2018-09-06T05:18:25.133Z,15.33
2018-09-06T05:20:59.466Z,15.83
2018-09-06T05:23:39.477Z,15.93
2018-09-06T05:26:09.236Z,15.83
2018-09-06T05:28:42.044Z,15.67
2018-09-06T05:31:16.281Z,16.37
2018-09-06T05:33:44.887Z,17.30
2018-09-06T05:36:15.151Z,16.20
2018-09-06T05:38:43.585Z,16.93
2018-09-06T05:41:13.200Z,16.13
2018-09-06T05:43:47.696Z,18.00
2018-09-06T05:46:18.513Z,17.20
2018-09-06T05:48:50.432Z,20.47
2018-09-06T05:51:19.909Z,22.83
2018-09-06T05:53:57.371Z,22.70
2018-09-06T05:56:27.330Z,26.30
2018-09-06T05:58:58.400Z,21.00
2018-09-06T06:01:30.694Z,21.23
2018-09-06T06:04:02.083Z,18.37
2018-09-06T06:06:31.200Z,18.87
2018-09-06T06:09:00.157Z,19.77
2018-09-06T06:11:29.585Z,21.20
2018-09-06T06:14:02.093Z,20.97
2018-09-06T06:16:30.848Z,19.60
2018-09-06T06:19:00.680Z,19.40
2018-09-06T06:21:30.108Z,19.30
2018-09-06T06:23:58.859Z,20.90
2018-09-06T06:26:27.305Z,22.70
2018-09-06T06:28:58.906Z,20.03
2018-09-06T06:31:29.747Z,21.17
2018-09-06T06:33:59.457Z,19.10
2018-09-06T06:36:28.813Z,17.90
2018-09-06T06:38:57.458Z,16.50
2018-09-06T06:41:29.402Z,16.97
2018-09-06T06:43:57.975Z,17.20
2018-09-06T06:46:27.100Z,13.73
2018-09-06T06:48:57.347Z,12.00
2018-09-06T06:51:27.986Z,6.50
2018-09-06T06:53:57.388Z,7.30
2018-09-06T06:56:26.685Z,8.83
2018-09-06T06:59:59.280Z,8.83
2018-09-06T07:02:28.708Z,8.30
2018-09-06T07:04:57.290Z,7.63
2018-09-06T07:07:26.706Z,9.70
2018-09-06T07:09:56.804Z,11.23
2018-09-06T07:12:25.345Z,9.70
2018-09-06T07:14:54.033Z,9.70
2018-09-06T07:17:22.545Z,9.47
2018-09-06T07:19:51.076Z,9.50
2018-09-06T07:22:19.255Z,9.67
2018-09-06T07:24:51.747Z,11.60
2018-09-06T07:27:21.152Z,12.47
2018-09-06T07:29:50.606Z,13.17
2018-09-06T07:32:19.147Z,16.27
2018-09-06T07:34:48.245Z,16.40
2018-09-06T07:37:17.724Z,14.33
2018-09-06T07:39:46.928Z,14.23
2018-09-06T07:42:17.605Z,13.73
2018-09-06T07:44:46.255Z,13.83
2018-09-06T07:47:16.688Z,13.67
2018-09-06T07:49:45.757Z,14.27
2018-09-06T07:52:14.503Z,14.27
2018-09-06T07:54:43.679Z,15.37
2018-09-06T07:57:12.689Z,14.37
2018-09-06T07:59:44.195Z,14.30
2018-09-06T08:02:13.261Z,14.00
2018-09-06T08:04:42.058Z,12.77
2018-09-06T08:07:12.466Z,13.40
2018-09-06T08:09:41.835Z,13.77
2018-09-06T08:13:15.338Z,12.53
2018-09-06T08:15:46.385Z,12.87
2018-09-06T08:18:15.900Z,12.60
2018-09-06T08:20:45.392Z,12.73
2018-09-06T08:23:15.099Z,12.80
2018-09-06T08:25:45.786Z,13.27
2018-09-06T08:28:16.763Z,11.63
2018-09-06T08:30:46.287Z,13.43
2018-09-06T08:33:15.910Z,12.20
2018-09-06T08:35:44.202Z,11.97
2018-09-06T08:38:12.842Z,12.30
2018-09-06T08:40:41.479Z,13.13
2018-09-06T08:43:09.988Z,12.20
2018-09-06T08:45:38.513Z,11.40
2018-09-06T08:48:08.688Z,11.93
2018-09-06T08:50:37.396Z,11.17
2018-09-06T08:53:07.102Z,11.47
2018-09-06T08:55:36.316Z,11.73
2018-09-06T08:58:06.408Z,10.50
2018-09-06T09:00:46.433Z,9.00
2018-09-06T09:03:15.082Z,10.40
2018-09-06T09:05:45.080Z,10.90
2018-09-06T09:08:14.229Z,10.87
2018-09-06T09:10:45.758Z,10.80
2018-09-06T09:13:17.913Z,10.10
2018-09-06T09:15:48.841Z,10.17
2018-09-06T09:18:17.681Z,10.50
2018-09-06T09:20:46.415Z,9.87
2018-09-06T09:23:15.660Z,9.73
2018-09-06T09:25:44.845Z,9.87
2018-09-06T09:28:14.843Z,9.67
2018-09-06T09:30:43.610Z,8.83
2018-09-06T09:33:12.831Z,9.33
2018-09-06T09:35:41.972Z,9.40
2018-09-06T09:38:10.887Z,9.47
2018-09-06T09:40:40.670Z,8.77
2018-09-06T09:43:09.529Z,9.27
2018-09-06T09:45:38.688Z,9.27
2018-09-06T09:48:06.791Z,9.10
2018-09-06T09:53:03.573Z,8.93
2018-09-06T09:55:33.144Z,10.03
2018-09-06T09:58:01.355Z,9.83
2018-09-06T10:00:34.057Z,9.00
2018-09-06T10:03:08.253Z,8.97
2018-09-06T10:05:42.011Z,9.63
2018-09-06T10:08:16.717Z,9.23
2018-09-06T10:10:45.117Z,9.60
2018-09-06T10:13:13.616Z,9.20
2018-09-06T10:15:46.192Z,9.77
2018-09-06T10:18:15.066Z,9.47
2018-09-06T10:20:45.603Z,9.47
2018-09-06T10:23:15.359Z,9.77
2018-09-06T10:25:45.087Z,8.77
2018-09-06T10:28:13.727Z,10.13
2018-09-06T10:30:43.023Z,9.73
2018-09-06T10:33:11.819Z,8.23
2018-09-06T10:35:40.071Z,9.23
2018-09-06T10:38:09.436Z,9.30
2018-09-06T10:40:38.744Z,9.20
2018-09-06T10:43:07.911Z,8.97
2018-09-06T10:45:36.239Z,9.40
2018-09-06T10:48:04.577Z,9.37
2018-09-06T10:50:33.322Z,9.63
2018-09-06T10:53:02.182Z,10.30
2018-09-06T10:55:30.434Z,9.47
2018-09-06T10:57:58.789Z,9.57
2018-09-06T11:00:28.947Z,9.40
2018-09-06T11:02:58.596Z,9.03
2018-09-06T11:05:27.364Z,9.30
2018-09-06T11:07:56.275Z,8.40
2018-09-06T11:10:24.761Z,9.20
2018-09-06T11:12:53.446Z,8.47
2018-09-06T11:15:22.037Z,9.20
2018-09-06T11:17:50.791Z,9.00
2018-09-06T11:20:19.350Z,8.73
2018-09-06T11:22:49.053Z,9.90
2018-09-06T11:25:18.025Z,8.63
2018-09-06T11:27:47.008Z,9.17
2018-09-06T11:30:15.744Z,8.57
2018-09-06T11:32:44.839Z,10.00
2018-09-06T11:35:13.598Z,8.73
2018-09-06T11:37:42.601Z,9.20
2018-09-06T11:40:11.487Z,9.20
2018-09-06T11:42:40.243Z,7.93
2018-09-06T11:45:09.067Z,8.90
2018-09-06T11:47:37.839Z,8.40
2018-09-06T11:50:07.037Z,9.33
2018-09-06T11:52:35.934Z,8.40
2018-09-06T11:55:04.832Z,8.23
2018-09-06T11:57:33.443Z,8.50
2018-09-06T12:00:02.046Z,8.30
2018-09-06T12:02:30.763Z,8.17
2018-09-06T12:04:59.535Z,8.27
2018-09-06T12:07:28.345Z,7.87
2018-09-06T12:09:56.946Z,8.37
2018-09-06T12:12:25.566Z,7.60
2018-09-06T12:14:54.236Z,7.50
2018-09-06T12:17:22.774Z,6.83
2018-09-06T12:19:51.403Z,7.50
2018-09-06T12:22:21.089Z,7.30
2018-09-06T12:24:49.944Z,6.57
2018-09-06T12:27:18.501Z,6.80
2018-09-06T12:29:47.100Z,7.13
2018-09-06T12:32:15.839Z,6.47
2018-09-06T12:34:44.718Z,6.40
2018-09-06T12:37:14.693Z,5.90
2018-09-06T12:39:44.871Z,6.20
2018-09-06T12:42:13.306Z,7.03
2018-09-06T12:44:42.732Z,6.80
2018-09-06T12:47:11.443Z,6.17
2018-09-06T12:49:41.196Z,6.20
2018-09-06T12:52:09.930Z,5.97
2018-09-06T12:54:39.695Z,5.50
2018-09-06T12:57:09.248Z,5.30
2018-09-06T12:59:38.067Z,4.67
2018-09-06T13:02:06.713Z,5.40
2018-09-06T13:04:35.516Z,5.27
2018-09-06T13:07:04.271Z,5.97
2018-09-06T13:09:33.006Z,5.43
2018-09-06T13:12:01.683Z,5.70
2018-09-06T13:14:30.381Z,5.47
2018-09-06T13:16:59.274Z,6.03
2018-09-06T13:19:28.008Z,5.17
2018-09-06T13:21:57.330Z,5.40
2018-09-06T13:24:26.160Z,4.57
2018-09-06T13:26:54.756Z,5.30
2018-09-06T13:29:24.651Z,5.30
2018-09-06T13:31:53.538Z,5.27
2018-09-06T13:34:22.082Z,5.47
2018-09-06T13:36:50.442Z,5.30
2018-09-06T13:39:19.199Z,4.70
2018-09-06T13:41:48.735Z,4.77
2018-09-06T13:44:18.101Z,5.53
2018-09-06T13:46:46.784Z,4.80
2018-09-06T13:49:15.499Z,4.87
2018-09-06T13:51:44.191Z,5.20
2018-09-06T13:54:12.963Z,5.40
2018-09-06T13:56:41.594Z,5.20
2018-09-06T13:59:10.199Z,5.70
2018-09-06T14:01:38.968Z,6.20
2018-09-06T14:04:07.835Z,5.80
2018-09-06T14:06:36.616Z,5.50
2018-09-06T14:09:06.475Z,4.90
2018-09-06T14:11:35.707Z,5.20
2018-09-06T14:14:05.532Z,5.60
2018-09-06T14:16:34.338Z,5.47
2018-09-06T14:19:03.570Z,5.83
2018-09-06T14:21:32.178Z,6.30
2018-09-06T14:24:00.885Z,6.20
2018-09-06T14:26:29.465Z,7.27
2018-09-06T14:28:58.045Z,6.17
2018-09-06T14:31:26.848Z,6.53
2018-09-06T14:33:55.787Z,6.40
2018-09-06T14:36:24.597Z,7.00
2018-09-06T14:38:53.375Z,7.73
2018-09-06T14:41:21.766Z,6.60
2018-09-06T14:43:50.434Z,6.93
2018-09-06T14:46:19.143Z,6.33
2018-09-06T14:48:47.779Z,6.50
2018-09-06T14:51:16.631Z,6.73
2018-09-06T14:53:47.026Z,6.13
2018-09-06T14:56:16.467Z,5.70
2018-09-06T14:58:45.285Z,6.10
2018-09-06T15:01:14.315Z,5.73
2018-09-06T15:03:43.157Z,5.70
2018-09-06T15:06:11.758Z,5.23
2018-09-06T15:08:40.428Z,6.63
2018-09-06T15:11:12.063Z,5.90
2018-09-06T15:13:40.703Z,5.07
2018-09-06T15:16:09.549Z,6.30
2018-09-06T15:18:38.525Z,6.03
2018-09-06T15:21:08.562Z,6.70
2018-09-06T15:23:37.077Z,6.03
2018-09-06T15:26:05.841Z,6.03
2018-09-06T15:28:34.445Z,5.80
2018-09-06T15:31:03.236Z,5.77
2018-09-06T15:33:31.601Z,6.60
2018-09-06T15:36:00.321Z,6.80
2018-09-06T15:38:28.666Z,6.20
2018-09-06T15:40:57.300Z,6.40
2018-09-06T15:43:26.421Z,6.20
2018-09-06T15:45:55.081Z,6.23
2018-09-06T15:48:23.862Z,7.63
2018-09-06T15:50:52.690Z,8.00
2018-09-06T15:53:21.545Z,7.87
2018-09-06T15:55:50.585Z,7.67
2018-09-06T15:58:19.358Z,7.93
2018-09-06T16:00:48.072Z,7.77
2018-09-06T16:03:16.783Z,7.40
2018-09-06T16:05:45.376Z,7.50
2018-09-06T16:08:14.161Z,8.60
2018-09-06T16:10:42.935Z,8.50
2018-09-06T16:13:12.629Z,10.27
2018-09-06T16:15:41.341Z,10.53
2018-09-06T16:18:10.126Z,11.10
2018-09-06T16:20:38.760Z,10.20
2018-09-06T16:23:06.954Z,11.77
2018-09-06T16:25:35.149Z,10.93
2018-09-06T16:28:03.356Z,11.10
2018-09-06T16:30:31.363Z,10.57
2018-09-06T16:32:59.682Z,11.43
2018-09-06T16:35:27.726Z,12.13
2018-09-06T16:37:56.016Z,12.00
2018-09-06T16:40:24.274Z,11.20
2018-09-06T16:42:52.606Z,13.10
2018-09-06T16:45:20.942Z,11.63
2018-09-06T16:47:49.206Z,11.90
2018-09-06T16:50:17.479Z,10.63
2018-09-06T16:52:45.770Z,11.67
2018-09-06T16:55:14.027Z,11.87
2018-09-06T16:57:42.333Z,12.00
2018-09-06T17:00:16.846Z,10.63
2018-09-06T17:02:45.142Z,12.73
2018-09-06T17:05:13.399Z,12.07
2018-09-06T17:07:41.711Z,11.93
2018-09-06T17:10:09.934Z,12.30
2018-09-06T17:12:38.131Z,13.07
2018-09-06T17:15:06.430Z,11.87
2018-09-06T17:17:34.678Z,12.60
2018-09-06T17:20:03.277Z,14.10
2018-09-06T17:22:31.506Z,12.13
2018-09-06T17:24:59.791Z,13.90
2018-09-06T17:27:28.073Z,12.03
2018-09-06T17:29:56.047Z,14.97
2018-09-06T17:32:24.414Z,12.50
2018-09-06T17:34:52.374Z,11.00
2018-09-06T17:37:20.702Z,9.40
2018-09-06T17:39:49.010Z,7.87
2018-09-06T17:42:17.258Z,6.80
2018-09-06T17:44:45.439Z,6.70
2018-09-06T17:47:13.664Z,5.63
2018-09-06T17:49:41.831Z,5.10
2018-09-06T17:52:10.939Z,4.10
2018-09-06T17:54:39.259Z,4.23
2018-09-06T17:57:07.490Z,4.50
2018-09-06T18:02:10.270Z,5.03
2018-09-06T18:04:38.576Z,5.17
2018-09-06T18:07:06.759Z,4.70
2018-09-06T18:09:35.014Z,6.67
2018-09-06T18:12:03.312Z,6.00
2018-09-06T18:14:31.552Z,5.90
2018-09-06T18:16:59.855Z,5.50
2018-09-06T18:19:28.137Z,5.20
2018-09-06T18:21:56.319Z,4.70
2018-09-06T18:24:24.523Z,5.20
2018-09-06T18:26:52.777Z,5.20
2018-09-06T18:29:21.040Z,4.60
2018-09-06T18:31:49.306Z,4.50
2018-09-06T18:34:17.450Z,4.80
2018-09-06T18:36:45.647Z,5.87
2018-09-06T18:39:13.906Z,7.10
2018-09-06T18:41:41.848Z,4.63
2018-09-06T18:44:09.948Z,4.50
2018-09-06T18:46:38.162Z,5.70
2018-09-06T18:49:06.358Z,6.13
2018-09-06T18:51:34.628Z,5.20
2018-09-06T18:54:02.939Z,5.50
2018-09-06T18:56:31.236Z,5.30
2018-09-06T18:58:59.597Z,4.50
2018-09-06T19:01:27.806Z,5.10
2018-09-06T19:03:56.071Z,5.10
2018-09-06T19:06:24.307Z,4.40
2018-09-06T19:08:52.498Z,5.23
2018-09-06T19:11:21.368Z,5.93
2018-09-06T19:13:49.599Z,5.50
2018-09-06T19:16:17.966Z,4.90
2018-09-06T19:18:46.211Z,4.97
2018-09-06T19:21:14.516Z,6.63
2018-09-06T19:23:42.779Z,6.00
2018-09-06T19:26:10.988Z,5.43
2018-09-06T19:28:39.215Z,4.77
2018-09-06T19:31:07.487Z,5.43
2018-09-06T19:33:35.698Z,4.17
2018-09-06T19:36:03.940Z,4.60
2018-09-06T19:38:32.131Z,4.60
2018-09-06T19:41:00.339Z,6.37
2018-09-06T19:43:28.657Z,5.53
2018-09-06T19:45:56.940Z,3.87
2018-09-06T19:48:25.227Z,4.20
2018-09-06T19:50:53.503Z,3.87
2018-09-06T19:53:21.703Z,3.50
2018-09-06T19:55:49.945Z,4.33
2018-09-06T19:58:18.297Z,3.90
2018-09-06T20:00:46.535Z,3.27
2018-09-06T20:03:14.724Z,3.87
2018-09-06T20:05:42.932Z,3.90
2018-09-06T20:08:11.173Z,4.07
2018-09-06T20:10:39.319Z,3.57
2018-09-06T20:13:07.535Z,3.57
2018-09-06T20:15:35.778Z,3.53
2018-09-06T20:18:04.019Z,4.10
2018-09-06T20:20:32.205Z,3.67
2018-09-06T20:23:00.391Z,3.37
2018-09-06T20:25:28.658Z,3.97
2018-09-06T20:27:56.964Z,3.90
2018-09-06T20:30:25.062Z,3.90
2018-09-06T20:32:53.276Z,4.20
2018-09-06T20:35:21.550Z,4.30
2018-09-06T20:37:49.801Z,4.87
2018-09-06T20:40:18.004Z,4.60
2018-09-06T20:42:46.571Z,4.93
2018-09-06T20:45:14.869Z,5.63
2018-09-06T20:47:43.116Z,5.40
2018-09-06T20:50:11.407Z,5.20
2018-09-06T20:52:39.619Z,5.63
2018-09-06T20:55:07.937Z,5.50
2018-09-06T20:57:36.298Z,5.77
2018-09-06T21:00:04.771Z,6.17
2018-09-06T21:02:36.983Z,5.27
2018-09-06T21:05:05.691Z,4.73
2018-09-06T21:07:33.962Z,5.10
2018-09-06T21:10:02.253Z,4.77
2018-09-06T21:12:30.650Z,4.50
2018-09-06T21:14:58.868Z,5.00
2018-09-06T21:17:27.134Z,5.20
2018-09-06T21:19:56.366Z,3.97
2018-09-06T21:22:24.635Z,4.90
2018-09-06T21:24:52.902Z,4.60
2018-09-06T21:27:21.180Z,4.17
2018-09-06T21:29:49.579Z,4.40
2018-09-06T21:32:17.913Z,5.37
2018-09-06T21:34:46.206Z,4.60
2018-09-06T21:37:14.387Z,5.23
2018-09-06T21:39:42.662Z,5.20
2018-09-06T21:42:10.927Z,4.93
2018-09-06T21:44:39.102Z,4.70
2018-09-06T21:47:07.323Z,4.20
2018-09-06T21:49:35.322Z,4.37
2018-09-06T21:52:03.823Z,4.30
2018-09-06T21:54:32.115Z,3.80
2018-09-06T21:57:00.379Z,5.20
2018-09-06T21:59:28.639Z,4.50
2018-09-06T22:01:56.839Z,4.90
2018-09-06T22:04:25.090Z,4.90
2018-09-06T22:06:53.381Z,5.00
2018-09-06T22:09:21.657Z,4.20
2018-09-06T22:11:49.918Z,4.13
2018-09-06T22:14:18.354Z,5.00
2018-09-06T22:16:46.615Z,4.17
2018-09-06T22:19:14.929Z,5.23
2018-09-06T22:21:43.126Z,5.23
2018-09-06T22:24:11.307Z,5.30
2018-09-06T22:26:39.519Z,5.77
2018-09-06T22:29:07.807Z,5.80
2018-09-06T22:31:36.094Z,5.87
2018-09-06T22:34:04.409Z,5.13
2018-09-06T22:36:32.590Z,5.23
2018-09-06T22:39:00.859Z,5.27
2018-09-06T22:41:29.171Z,4.67
2018-09-06T22:43:57.370Z,5.30
2018-09-06T22:46:25.622Z,5.77
2018-09-06T22:48:53.729Z,6.13
2018-09-06T22:51:21.683Z,5.40
2018-09-06T22:53:49.907Z,5.13
2018-09-06T22:56:18.164Z,5.13
2018-09-06T22:58:46.435Z,5.60
2018-09-06T23:01:14.723Z,5.20
2018-09-06T23:03:44.119Z,5.53
2018-09-06T23:06:12.474Z,4.47
2018-09-06T23:08:40.670Z,4.63
2018-09-06T23:11:08.938Z,4.80
2018-09-06T23:13:37.122Z,4.03
2018-09-06T23:16:05.315Z,5.00
2018-09-06T23:18:33.605Z,4.60
2018-09-06T23:21:01.842Z,4.57
2018-09-06T23:23:30.203Z,4.43
2018-09-06T23:25:58.382Z,4.80
2018-09-06T23:28:26.558Z,4.80
2018-09-06T23:30:54.765Z,5.00
2018-09-06T23:33:22.966Z,4.10
2018-09-06T23:35:51.205Z,4.60
2018-09-06T23:38:19.848Z,4.00
2018-09-06T23:40:53.520Z,3.93
2018-09-06T23:43:22.739Z,3.73
2018-09-06T23:45:53.070Z,3.70
2018-09-06T23:48:23.398Z,4.50
2018-09-06T23:50:52.018Z,4.37
2018-09-06T23:53:19.981Z,4.30
2018-09-06T23:55:48.186Z,5.10
2018-09-06T23:58:16.578Z,5.07
